createdAt,value
2017-07-03T00:02:05.623Z,13.20
2017-07-03T00:04:33.952Z,13.30
2017-07-03T00:07:02.236Z,13.20
2017-07-03T00:09:30.592Z,13.10
2017-07-03T00:11:58.871Z,13.00
2017-07-03T00:14:27.158Z,13.00
2017-07-03T00:16:55.504Z,12.90
2017-07-03T00:19:23.782Z,12.90
2017-07-03T00:21:52.143Z,12.80
2017-07-03T00:24:20.427Z,12.90
2017-07-03T00:26:48.729Z,12.90
2017-07-03T00:29:17.058Z,12.90
2017-07-03T00:31:45.339Z,12.90
2017-07-03T00:34:13.637Z,12.80
2017-07-03T00:36:42.063Z,12.70
2017-07-03T00:39:10.334Z,12.70
2017-07-03T00:41:38.672Z,12.60
2017-07-03T00:44:07.724Z,12.60
2017-07-03T00:46:36.021Z,12.60
2017-07-03T00:49:04.348Z,12.70
2017-07-03T00:51:32.731Z,12.60
2017-07-03T00:54:01.058Z,12.60
2017-07-03T00:56:29.334Z,12.60
2017-07-03T00:58:58.431Z,12.50
2017-07-03T01:01:26.725Z,12.50
2017-07-03T01:03:55.001Z,12.50
2017-07-03T01:06:23.323Z,12.40
2017-07-03T01:08:51.611Z,12.40
2017-07-03T01:11:19.933Z,12.30
2017-07-03T01:13:48.230Z,12.30
2017-07-03T01:16:16.510Z,12.30
2017-07-03T01:18:44.831Z,12.20
2017-07-03T01:21:13.168Z,12.30
2017-07-03T01:23:41.452Z,12.20
2017-07-03T01:26:09.740Z,12.10
2017-07-03T01:28:38.067Z,12.20
2017-07-03T01:31:07.306Z,12.20
2017-07-03T01:33:35.656Z,12.10
2017-07-03T01:36:03.944Z,12.10
2017-07-03T01:38:32.230Z,12.10
2017-07-03T01:41:00.551Z,12.20
2017-07-03T01:43:28.832Z,12.10
2017-07-03T01:45:57.172Z,11.90
2017-07-03T01:48:26.257Z,12.00
2017-07-03T01:50:54.540Z,11.90
2017-07-03T01:53:22.884Z,11.90
2017-07-03T01:55:51.167Z,11.90
2017-07-03T01:58:19.453Z,11.80
2017-07-03T02:00:47.787Z,11.90
2017-07-03T02:03:16.077Z,11.90
2017-07-03T02:05:44.412Z,11.80
2017-07-03T02:08:12.709Z,11.80
2017-07-03T02:10:40.990Z,11.80
2017-07-03T02:13:09.357Z,11.70
2017-07-03T02:15:38.398Z,11.70
2017-07-03T02:18:06.740Z,11.70
2017-07-03T02:20:35.077Z,11.70
2017-07-03T02:23:03.369Z,11.80
2017-07-03T02:25:31.656Z,11.70
2017-07-03T02:27:59.979Z,11.70
2017-07-03T02:30:28.306Z,11.70
2017-07-03T02:32:57.480Z,11.70
2017-07-03T02:35:25.763Z,11.60
2017-07-03T02:37:54.051Z,11.60
2017-07-03T02:40:22.384Z,11.50
2017-07-03T02:42:51.484Z,11.60
2017-07-03T02:45:20.541Z,11.70
2017-07-03T02:47:48.875Z,11.60
2017-07-03T02:50:17.150Z,11.60
2017-07-03T02:52:45.479Z,11.60
2017-07-03T02:55:13.798Z,11.60
2017-07-03T02:57:42.078Z,11.60
2017-07-03T03:00:10.428Z,11.60
2017-07-03T03:02:39.489Z,11.60
2017-07-03T03:05:07.788Z,11.60
2017-07-03T03:07:36.169Z,11.60
2017-07-03T03:10:04.417Z,11.70
2017-07-03T03:12:33.467Z,11.70
2017-07-03T03:15:01.797Z,11.70
2017-07-03T03:17:30.079Z,11.70
2017-07-03T03:19:58.404Z,11.70
2017-07-03T03:22:26.695Z,11.70
2017-07-03T03:24:55.044Z,11.70
2017-07-03T03:27:23.331Z,11.80
2017-07-03T03:29:51.611Z,11.80
2017-07-03T03:32:19.936Z,11.90
2017-07-03T03:34:48.989Z,12.00
2017-07-03T03:37:17.284Z,11.90
2017-07-03T03:39:45.610Z,11.90
2017-07-03T03:42:14.673Z,12.00
2017-07-03T03:44:42.999Z,12.00
2017-07-03T03:47:11.340Z,12.10
2017-07-03T03:49:39.664Z,12.30
2017-07-03T03:52:07.943Z,12.50
2017-07-03T03:54:36.272Z,12.70
2017-07-03T03:57:05.394Z,13.20
2017-07-03T03:59:33.683Z,13.20
2017-07-03T04:02:01.962Z,13.60
2017-07-03T04:04:31.067Z,14.20
2017-07-03T04:07:00.114Z,14.40
2017-07-03T04:09:28.434Z,14.40
2017-07-03T04:11:56.759Z,14.60
2017-07-03T04:14:25.806Z,14.70
2017-07-03T04:16:54.113Z,14.70
2017-07-03T04:19:22.448Z,14.80
2017-07-03T04:21:51.512Z,14.90
2017-07-03T04:24:19.793Z,14.90
2017-07-03T04:26:48.111Z,15.00
2017-07-03T04:29:16.432Z,15.10
2017-07-03T04:31:44.724Z,15.00
2017-07-03T04:34:13.043Z,15.20
2017-07-03T04:36:41.332Z,15.10
2017-07-03T04:39:09.656Z,15.20
2017-07-03T04:41:37.986Z,15.30
2017-07-03T04:44:06.280Z,15.40
2017-07-03T04:46:34.553Z,15.50
2017-07-03T04:49:02.876Z,15.50
2017-07-03T04:51:31.164Z,15.50
2017-07-03T04:53:59.501Z,15.50
2017-07-03T04:56:27.783Z,15.60
2017-07-03T04:58:56.068Z,15.70
2017-07-03T05:01:24.387Z,15.80
2017-07-03T05:03:52.671Z,15.90
2017-07-03T05:06:21.016Z,16.20
2017-07-03T05:08:49.294Z,16.50
2017-07-03T05:11:17.588Z,16.70
2017-07-03T05:13:45.910Z,16.70
2017-07-03T05:16:14.196Z,16.60
2017-07-03T05:18:42.480Z,16.50
2017-07-03T05:21:10.816Z,16.30
2017-07-03T05:23:39.093Z,16.20
2017-07-03T05:26:07.387Z,16.20
2017-07-03T05:28:35.712Z,16.30
2017-07-03T05:31:03.990Z,16.50
2017-07-03T05:33:32.266Z,16.50
2017-07-03T05:36:00.595Z,16.60
2017-07-03T05:38:28.884Z,16.70
2017-07-03T05:40:57.214Z,16.80
2017-07-03T05:43:31.107Z,16.70
2017-07-03T05:45:59.448Z,16.70
2017-07-03T05:48:27.732Z,16.60
2017-07-03T05:50:56.023Z,16.50
2017-07-03T05:53:24.336Z,16.40
2017-07-03T05:55:52.651Z,16.60
2017-07-03T05:58:20.936Z,16.50
2017-07-03T06:00:49.222Z,16.30
2017-07-03T06:03:17.549Z,16.30
2017-07-03T06:05:46.611Z,16.50
2017-07-03T06:08:14.952Z,16.50
2017-07-03T06:10:43.236Z,16.70
2017-07-03T06:13:11.514Z,16.80
2017-07-03T06:15:40.599Z,16.80
2017-07-03T06:18:08.890Z,16.80
2017-07-03T06:20:37.224Z,16.90
2017-07-03T06:23:05.546Z,17.00
2017-07-03T06:25:33.827Z,17.20
2017-07-03T06:28:02.151Z,17.00
2017-07-03T06:30:30.443Z,16.90
2017-07-03T06:32:58.792Z,17.00
2017-07-03T06:35:27.082Z,17.10
2017-07-03T06:37:55.368Z,17.10
2017-07-03T06:40:23.699Z,17.00
2017-07-03T06:42:51.988Z,16.80
2017-07-03T06:45:20.271Z,16.60
2017-07-03T06:47:48.579Z,16.70
2017-07-03T06:50:17.622Z,17.30
2017-07-03T06:52:45.960Z,17.30
2017-07-03T06:55:14.348Z,17.50
2017-07-03T06:57:42.627Z,17.70
2017-07-03T07:00:10.946Z,17.50
2017-07-03T07:02:39.990Z,17.70
2017-07-03T07:05:08.341Z,17.60
2017-07-03T07:07:37.382Z,17.80
2017-07-03T07:10:05.676Z,17.70
2017-07-03T07:12:34.103Z,17.80
2017-07-03T07:15:02.379Z,18.00
2017-07-03T07:17:30.660Z,18.00
2017-07-03T07:19:58.992Z,18.20
2017-07-03T07:22:27.274Z,18.10
2017-07-03T07:24:55.563Z,17.90
2017-07-03T07:27:23.894Z,17.90
2017-07-03T07:29:52.242Z,18.00
2017-07-03T07:32:20.534Z,18.20
2017-07-03T07:34:48.923Z,18.30
2017-07-03T07:37:17.396Z,18.20
2017-07-03T07:39:45.718Z,18.50
2017-07-03T07:42:14.780Z,18.40
2017-07-03T07:44:43.064Z,18.40
2017-07-03T07:47:11.396Z,18.40
2017-07-03T07:49:39.719Z,18.40
2017-07-03T07:52:08.020Z,18.60
2017-07-03T07:54:36.305Z,18.80
2017-07-03T07:57:04.626Z,19.00
2017-07-03T07:59:32.899Z,19.00
2017-07-03T08:02:01.234Z,19.00
2017-07-03T08:04:29.527Z,18.80
2017-07-03T08:06:58.624Z,18.70
2017-07-03T08:09:26.913Z,18.70
2017-07-03T08:11:55.244Z,18.80
2017-07-03T08:14:23.531Z,18.90
2017-07-03T08:16:51.827Z,18.90
2017-07-03T08:19:20.169Z,19.10
2017-07-03T08:21:48.494Z,19.30
2017-07-03T08:24:16.781Z,19.20
2017-07-03T08:26:45.075Z,18.90
2017-07-03T08:29:13.386Z,18.90
2017-07-03T08:31:41.673Z,19.10
2017-07-03T08:34:10.003Z,19.30
2017-07-03T08:36:38.399Z,19.60
2017-07-03T08:39:06.674Z,19.70
2017-07-03T08:41:35.711Z,19.30
2017-07-03T08:44:04.754Z,19.20
2017-07-03T08:46:33.066Z,19.20
2017-07-03T08:49:01.338Z,19.50
2017-07-03T08:51:29.659Z,19.80
2017-07-03T08:53:57.982Z,19.90
2017-07-03T08:56:27.030Z,19.90
2017-07-03T08:58:55.369Z,19.90
2017-07-03T09:01:23.697Z,19.80
2017-07-03T09:03:51.987Z,20.00
2017-07-03T09:06:20.343Z,20.20
2017-07-03T09:08:49.400Z,20.30
2017-07-03T09:11:17.692Z,20.30
2017-07-03T09:13:46.007Z,20.00
2017-07-03T09:16:15.915Z,20.10
2017-07-03T09:18:44.252Z,20.00
2017-07-03T09:21:13.304Z,19.60
2017-07-03T09:23:41.626Z,19.60
2017-07-03T09:26:09.968Z,19.90
2017-07-03T09:28:38.263Z,19.80
2017-07-03T09:31:06.604Z,19.60
2017-07-03T09:33:34.934Z,19.70
2017-07-03T09:36:03.279Z,20.10
2017-07-03T09:38:31.553Z,20.50
2017-07-03T09:40:59.871Z,20.70
2017-07-03T09:43:28.928Z,20.50
2017-07-03T09:45:57.252Z,20.50
2017-07-03T09:48:25.540Z,20.50
2017-07-03T09:50:53.927Z,20.60
2017-07-03T09:53:22.219Z,20.60
2017-07-03T09:55:50.555Z,20.40
2017-07-03T09:58:18.840Z,19.80
2017-07-03T10:00:47.178Z,19.90
2017-07-03T10:03:15.528Z,20.20
2017-07-03T10:05:43.802Z,20.60
2017-07-03T10:08:12.086Z,20.90
2017-07-03T10:10:40.434Z,21.00
2017-07-03T10:13:08.719Z,20.90
2017-07-03T10:15:37.023Z,21.00
2017-07-03T10:18:05.377Z,20.50
2017-07-03T10:20:33.698Z,20.50
2017-07-03T10:23:02.104Z,20.10
2017-07-03T10:25:30.503Z,19.70
2017-07-03T10:27:59.600Z,20.00
2017-07-03T10:30:30.408Z,20.00
2017-07-03T10:32:58.824Z,19.90
2017-07-03T10:35:27.099Z,20.20
2017-07-03T10:37:55.412Z,20.50
2017-07-03T10:40:23.732Z,20.60
2017-07-03T10:42:52.827Z,20.90
2017-07-03T10:45:21.169Z,20.90
2017-07-03T10:47:49.450Z,20.90
2017-07-03T10:50:17.787Z,20.50
2017-07-03T10:52:46.148Z,20.80
2017-07-03T10:55:14.430Z,21.10
2017-07-03T10:57:42.761Z,21.00
2017-07-03T11:00:11.092Z,21.20
2017-07-03T11:02:39.384Z,21.40
2017-07-03T11:05:07.719Z,21.40
2017-07-03T11:07:36.044Z,21.40
2017-07-03T11:10:04.485Z,21.60
2017-07-03T11:12:32.777Z,21.60
2017-07-03T11:15:01.064Z,21.80
2017-07-03T11:17:29.374Z,21.60
2017-07-03T11:19:57.717Z,21.40
2017-07-03T11:22:26.053Z,21.10
2017-07-03T11:24:55.120Z,21.00
2017-07-03T11:27:23.439Z,21.00
2017-07-03T11:29:51.823Z,21.60
2017-07-03T11:32:20.163Z,21.80
2017-07-03T11:34:48.452Z,22.10
2017-07-03T11:37:17.495Z,21.80
2017-07-03T11:39:45.839Z,21.80
2017-07-03T11:42:14.897Z,22.20
2017-07-03T11:44:43.215Z,22.20
2017-07-03T11:47:11.602Z,22.00
2017-07-03T11:49:39.883Z,21.60
2017-07-03T11:52:08.162Z,21.40
2017-07-03T11:54:36.567Z,21.40
2017-07-03T11:57:04.856Z,21.30
2017-07-03T11:59:33.256Z,21.30
2017-07-03T12:02:01.583Z,21.60
2017-07-03T12:04:29.912Z,21.90
2017-07-03T12:06:58.323Z,22.10
2017-07-03T12:09:26.594Z,22.30
2017-07-03T12:11:55.020Z,22.00
2017-07-03T12:14:24.663Z,22.40
2017-07-03T12:16:53.039Z,22.40
2017-07-03T12:19:22.149Z,22.50
2017-07-03T12:21:51.199Z,22.50
2017-07-03T12:24:19.489Z,22.50
2017-07-03T12:26:47.812Z,22.50
2017-07-03T12:29:16.200Z,22.50
2017-07-03T12:31:44.521Z,22.20
2017-07-03T12:34:12.856Z,21.90
2017-07-03T12:36:41.156Z,22.10
2017-07-03T12:39:09.538Z,22.40
2017-07-03T12:41:37.810Z,22.60
2017-07-03T12:44:06.102Z,22.50
2017-07-03T12:46:34.428Z,22.10
2017-07-03T12:49:02.715Z,22.10
2017-07-03T12:51:31.035Z,22.30
2017-07-03T12:53:59.384Z,22.60
2017-07-03T12:56:27.664Z,22.60
2017-07-03T12:58:56.059Z,22.80
2017-07-03T13:01:24.558Z,23.10
2017-07-03T13:03:52.855Z,23.30
2017-07-03T13:06:21.267Z,23.50
2017-07-03T13:08:50.338Z,23.50
2017-07-03T13:11:18.642Z,23.40
2017-07-03T13:13:47.050Z,23.40
2017-07-03T13:16:15.418Z,23.30
2017-07-03T13:18:43.810Z,23.40
2017-07-03T13:21:12.086Z,23.10
2017-07-03T13:23:40.394Z,22.80
2017-07-03T13:26:08.804Z,22.70
2017-07-03T13:28:37.859Z,22.80
2017-07-03T13:31:06.139Z,22.80
2017-07-03T13:33:34.485Z,23.00
2017-07-03T13:36:02.758Z,22.90
2017-07-03T13:38:31.087Z,22.90
2017-07-03T13:41:00.130Z,23.20
2017-07-03T13:43:28.543Z,23.20
2017-07-03T13:45:56.861Z,23.60
2017-07-03T13:48:25.960Z,23.80
2017-07-03T13:50:54.252Z,23.80
2017-07-03T13:53:22.536Z,23.80
2017-07-03T13:55:50.850Z,23.60
2017-07-03T13:58:19.198Z,23.40
2017-07-03T14:00:47.519Z,23.50
2017-07-03T14:03:16.571Z,23.90
2017-07-03T14:05:44.989Z,23.90
2017-07-03T14:08:13.280Z,24.00
2017-07-03T14:10:41.572Z,24.20
2017-07-03T14:13:09.899Z,24.30
2017-07-03T14:15:38.184Z,24.20
2017-07-03T14:18:06.538Z,23.80
2017-07-03T14:20:34.936Z,23.40
2017-07-03T14:23:03.212Z,23.70
2017-07-03T14:25:31.487Z,24.30
2017-07-03T14:27:59.910Z,24.20
2017-07-03T14:30:28.299Z,24.40
2017-07-03T14:32:56.635Z,24.40
2017-07-03T14:35:24.967Z,24.70
2017-07-03T14:37:53.269Z,24.50
2017-07-03T14:40:21.598Z,24.70
2017-07-03T14:42:49.949Z,24.90
2017-07-03T14:45:18.350Z,25.20
2017-07-03T14:47:46.747Z,25.20
2017-07-03T14:50:15.018Z,25.00
2017-07-03T14:52:43.339Z,24.80
2017-07-03T14:55:12.484Z,25.00
2017-07-03T14:57:41.553Z,25.80
2017-07-03T15:00:10.630Z,26.70
2017-07-03T15:02:38.954Z,26.60
2017-07-03T15:05:08.140Z,27.80
2017-07-03T15:07:36.524Z,27.70
2017-07-03T15:10:04.909Z,28.00
2017-07-03T15:12:33.189Z,28.20
2017-07-03T15:15:01.472Z,28.50
2017-07-03T15:17:29.800Z,28.60
2017-07-03T15:19:58.847Z,29.20
2017-07-03T15:22:27.190Z,29.20
2017-07-03T15:24:55.458Z,29.80
2017-07-03T15:27:23.786Z,29.60
2017-07-03T15:29:52.861Z,29.10
2017-07-03T15:32:21.150Z,29.10
2017-07-03T15:34:49.550Z,29.50
2017-07-03T15:37:17.840Z,30.20
2017-07-03T15:39:46.129Z,30.20
2017-07-03T15:42:15.237Z,31.20
2017-07-03T15:44:43.525Z,31.10
2017-07-03T15:47:11.916Z,30.70
2017-07-03T15:49:40.234Z,30.50
2017-07-03T15:52:08.586Z,29.90
2017-07-03T15:54:36.992Z,29.60
2017-07-03T15:57:05.290Z,29.10
2017-07-03T15:59:33.638Z,28.50
2017-07-03T16:02:01.918Z,27.90
2017-07-03T16:04:30.236Z,27.30
2017-07-03T16:06:58.638Z,27.90
2017-07-03T16:09:26.926Z,28.40
2017-07-03T16:11:55.208Z,28.60
2017-07-03T16:14:23.545Z,28.90
2017-07-03T16:16:51.896Z,29.20
2017-07-03T16:19:20.313Z,29.20
2017-07-03T16:21:49.400Z,27.70
2017-07-03T16:24:17.778Z,27.60
2017-07-03T16:26:46.060Z,26.70
2017-07-03T16:29:14.454Z,26.30
2017-07-03T16:31:42.736Z,26.00
2017-07-03T16:34:11.064Z,26.40
2017-07-03T16:36:40.120Z,28.10
2017-07-03T16:39:08.416Z,28.10
2017-07-03T16:41:36.749Z,28.50
2017-07-03T16:44:05.909Z,28.40
2017-07-03T16:46:34.238Z,28.40
2017-07-03T16:49:02.574Z,28.40
2017-07-03T16:51:30.858Z,28.60
2017-07-03T16:53:59.386Z,29.70
2017-07-03T16:56:27.788Z,30.00
2017-07-03T16:58:56.072Z,29.70
2017-07-03T17:01:24.360Z,28.80
2017-07-03T17:03:52.679Z,28.00
2017-07-03T17:06:21.722Z,26.50
2017-07-03T17:08:50.056Z,26.40
2017-07-03T17:11:18.335Z,25.80
2017-07-03T17:13:46.614Z,25.30
2017-07-03T17:16:14.939Z,24.80
2017-07-03T17:18:44.043Z,24.30
2017-07-03T17:21:12.363Z,24.20
2017-07-03T17:23:40.687Z,23.90
2017-07-03T17:26:09.005Z,23.70
2017-07-03T17:28:38.306Z,23.50
2017-07-03T17:31:06.584Z,23.40
2017-07-03T17:33:34.877Z,23.30
2017-07-03T17:36:03.287Z,23.20
2017-07-03T17:38:31.567Z,23.10
2017-07-03T17:40:59.899Z,23.00
2017-07-03T17:43:28.175Z,23.00
2017-07-03T17:45:57.268Z,22.70
2017-07-03T17:48:25.647Z,22.70
2017-07-03T17:50:53.927Z,22.70
2017-07-03T17:53:22.339Z,22.60
2017-07-03T17:55:50.623Z,22.40
2017-07-03T17:58:18.906Z,22.30
2017-07-03T18:00:47.239Z,22.10
2017-07-03T18:03:15.523Z,21.90
2017-07-03T18:05:43.950Z,21.80
2017-07-03T18:08:12.231Z,21.60
2017-07-03T18:10:40.525Z,21.50
2017-07-03T18:13:08.848Z,21.40
2017-07-03T18:15:37.238Z,21.20
2017-07-03T18:18:05.571Z,21.10
2017-07-03T18:20:33.856Z,21.00
2017-07-03T18:23:02.208Z,20.90
2017-07-03T18:25:30.535Z,20.80
2017-07-03T18:27:58.830Z,20.70
2017-07-03T18:30:27.161Z,20.60
2017-07-03T18:32:55.493Z,20.60
2017-07-03T18:35:24.534Z,20.50
2017-07-03T18:37:52.856Z,20.50
2017-07-03T18:40:21.148Z,20.40
2017-07-03T18:42:49.627Z,20.30
2017-07-03T18:45:18.047Z,20.20
2017-07-03T18:47:46.338Z,20.00
2017-07-03T18:50:14.669Z,20.00
2017-07-03T18:52:43.002Z,19.90
2017-07-03T18:55:11.301Z,19.90
2017-07-03T18:57:39.618Z,19.80
2017-07-03T19:00:08.667Z,19.60
2017-07-03T19:02:36.978Z,19.60
2017-07-03T19:05:05.286Z,19.60
2017-07-03T19:07:33.602Z,19.50
2017-07-03T19:10:01.942Z,19.50
2017-07-03T19:12:30.230Z,19.40
2017-07-03T19:14:58.582Z,19.40
2017-07-03T19:17:26.929Z,19.20
2017-07-03T19:19:55.221Z,19.00
2017-07-03T19:22:23.549Z,18.90
2017-07-03T19:24:51.825Z,18.90
2017-07-03T19:27:20.150Z,18.80
2017-07-03T19:29:48.449Z,18.80
2017-07-03T19:32:16.772Z,18.70
2017-07-03T19:34:45.879Z,18.60
2017-07-03T19:37:15.068Z,18.50
2017-07-03T19:39:43.364Z,18.50
2017-07-03T19:42:11.701Z,18.50
2017-07-03T19:44:39.992Z,18.40
2017-07-03T19:47:08.319Z,18.30
2017-07-03T19:49:36.607Z,18.20
2017-07-03T19:52:05.015Z,18.10
2017-07-03T19:54:33.307Z,18.10
2017-07-03T19:57:01.601Z,18.00
2017-07-03T19:59:29.921Z,17.90
2017-07-03T20:01:58.208Z,17.90
2017-07-03T20:04:26.500Z,17.80
2017-07-03T20:06:54.834Z,17.80
2017-07-03T20:09:23.122Z,17.80
2017-07-03T20:11:51.459Z,17.80
2017-07-03T20:14:20.520Z,17.80
2017-07-03T20:16:48.807Z,17.70
2017-07-03T20:19:17.149Z,17.80
2017-07-03T20:21:45.426Z,17.80
2017-07-03T20:24:14.483Z,17.80
2017-07-03T20:26:42.816Z,17.80
2017-07-03T20:29:11.916Z,17.80
2017-07-03T20:31:40.316Z,17.80
2017-07-03T20:34:08.598Z,17.80
2017-07-03T20:36:37.694Z,17.90
2017-07-03T20:39:29.525Z,17.80
2017-07-03T20:41:57.865Z,17.90
2017-07-03T20:44:37.169Z,17.80
2017-07-03T20:47:05.494Z,17.80
2017-07-03T20:49:33.855Z,17.80
2017-07-03T20:52:02.145Z,17.70
2017-07-03T20:54:42.284Z,17.70
2017-07-03T20:57:11.357Z,17.60
2017-07-03T20:59:39.645Z,17.60
2017-07-03T21:02:13.839Z,17.60
2017-07-03T21:04:51.020Z,17.60
2017-07-03T21:07:19.340Z,17.50
2017-07-03T21:09:47.640Z,17.60
2017-07-03T21:12:36.861Z,17.60
2017-07-03T21:15:05.762Z,17.60
2017-07-03T21:17:48.991Z,17.60
2017-07-03T21:20:17.280Z,17.60
2017-07-03T21:22:46.561Z,17.60
2017-07-03T21:25:14.896Z,17.70
2017-07-03T21:27:43.190Z,17.70
2017-07-03T21:30:12.286Z,17.80
2017-07-03T21:32:40.620Z,17.80
2017-07-03T21:35:08.934Z,17.80
2017-07-03T21:37:37.261Z,17.80
2017-07-03T21:40:05.555Z,17.80
2017-07-03T21:42:34.646Z,17.70
2017-07-03T21:45:02.974Z,17.70
2017-07-03T21:47:31.295Z,17.60
2017-07-03T21:49:59.627Z,17.60
2017-07-03T21:52:27.912Z,17.60
2017-07-03T21:54:56.202Z,17.60
2017-07-03T21:57:24.527Z,17.50
2017-07-03T21:59:52.820Z,17.40
2017-07-03T22:02:21.167Z,17.40
2017-07-03T22:04:49.461Z,17.30
2017-07-03T22:07:17.744Z,17.30
2017-07-03T22:09:46.074Z,17.30
2017-07-03T22:12:14.409Z,17.30
2017-07-03T22:14:42.737Z,17.30
2017-07-03T22:17:11.013Z,17.30
2017-07-03T22:19:44.073Z,17.20
2017-07-03T22:22:12.359Z,17.20
2017-07-03T22:24:40.655Z,17.20
2017-07-03T22:27:08.985Z,17.20
2017-07-03T22:29:37.279Z,17.20
2017-07-03T22:32:06.368Z,17.10
2017-07-03T22:34:34.691Z,17.10
2017-07-03T22:37:03.754Z,17.10
2017-07-03T22:39:32.076Z,17.10
2017-07-03T22:42:00.428Z,17.10
2017-07-03T22:44:28.720Z,17.10
2017-07-03T22:46:57.009Z,17.10
2017-07-03T22:49:25.338Z,17.20
2017-07-03T22:51:57.634Z,17.30
2017-07-03T22:54:25.962Z,17.30
2017-07-03T22:56:54.256Z,17.40
2017-07-03T22:59:22.540Z,17.50
2017-07-03T23:01:50.893Z,17.60
2017-07-03T23:04:19.979Z,17.90
2017-07-03T23:06:49.032Z,17.90
2017-07-03T23:09:17.355Z,17.90
2017-07-03T23:11:45.699Z,17.90
2017-07-03T23:14:13.979Z,18.00
2017-07-03T23:16:42.262Z,18.00
2017-07-03T23:19:11.365Z,18.00
2017-07-03T23:21:39.660Z,18.00
2017-07-03T23:24:08.757Z,18.00
2017-07-03T23:26:37.030Z,18.00
2017-07-03T23:29:05.375Z,18.00
2017-07-03T23:31:33.653Z,17.90
2017-07-03T23:34:01.950Z,17.90
2017-07-03T23:36:30.276Z,17.90
2017-07-03T23:38:58.626Z,17.90
2017-07-03T23:41:26.912Z,17.80
2017-07-03T23:44:07.935Z,17.80
2017-07-03T23:46:36.268Z,17.70
2017-07-03T23:49:05.319Z,17.60
2017-07-03T23:51:33.657Z,17.60
2017-07-03T23:54:01.938Z,17.60
2017-07-03T23:56:30.218Z,17.60
2017-07-03T23:58:58.549Z,17.60
